FEFF Airport Information

Runway Information
Runway 17 Length 8530 ft width 148 ft
Elevation 1208 ft Threshold 0 ft Heading 165
Runway 35 Length 8530 ft Width 148 ft
Elevation 1182 ft Threshold 0 ft Heading 345
Airport Frequencies
Type A/G Name RDO Frequency 655.9 MHZ
Type TWR Name TWR Frequency 119.7 MHZ
Airport Navaids
Type VOR-DME Name Bangui M Poko Frequency 117300 KHZ
Airport Weather Information & NOTAM
ADDS - METARS form results

(1925 UTC 25 June 2018)
 
METAR text: FEFF 251900Z 16003KT 9999 FEW013 24/22 Q1010 NOSIG
Conditions at: FEFF (BANGUI/M'POKO (M, CF) observed 1900 UTC 25 June 2018
Temperature: 24.0°C (75°F)
Dewpoint: 22.0°C (72°F) [RH = 89%]
Pressure (altimeter): 29.82 inches Hg (1010.0 mb)
Winds: from the SSE (160 degrees) at 3 MPH (3 knots; 1.6 m/s)
Visibility: 6 or more miles (10+ km)
Ceiling: at least 12,000 feet AGL
Clouds: few clouds at 1300 feet AGL
Weather: no significant weather observed at this time